createdAt,value
2023-03-22T00:01:22.686Z,13.62
2023-03-22T00:06:26.917Z,13.11
2023-03-22T00:11:30.569Z,12.70
2023-03-22T00:16:34.205Z,12.35
2023-03-22T00:21:37.830Z,13.11
2023-03-22T00:26:41.557Z,15.77
2023-03-22T00:31:45.227Z,16.34
2023-03-22T00:36:48.855Z,14.84
2023-03-22T00:41:52.194Z,13.90
2023-03-22T00:46:55.650Z,13.28
2023-03-22T00:51:59.204Z,12.80
2023-03-22T00:57:07.957Z,12.38
2023-03-22T01:02:15.177Z,12.04
2023-03-22T01:07:21.913Z,12.74
2023-03-22T01:12:25.519Z,15.39
2023-03-22T01:17:28.765Z,16.15
2023-03-22T01:22:32.205Z,14.65
2023-03-22T01:27:36.309Z,13.66
2023-03-22T01:32:40.236Z,13.05
2023-03-22T01:37:44.024Z,12.57
2023-03-22T01:42:48.080Z,12.13
2023-03-22T01:47:59.879Z,11.78
2023-03-22T01:53:05.335Z,12.59
2023-03-22T01:58:10.810Z,15.39
2023-03-22T02:03:56.033Z,15.85
2023-03-22T02:08:59.867Z,14.20
2023-03-22T02:14:29.525Z,13.31
2023-03-22T02:20:25.642Z,12.61
2023-03-22T02:25:32.912Z,12.08
2023-03-22T02:30:48.422Z,11.66
2023-03-22T02:36:12.937Z,11.32
2023-03-22T02:42:03.224Z,12.14
2023-03-22T02:47:17.338Z,15.06
2023-03-22T02:52:29.865Z,15.23
2023-03-22T02:57:45.649Z,13.70
2023-03-22T03:02:57.842Z,12.77
2023-03-22T03:08:02.916Z,12.10
2023-03-22T03:13:06.764Z,11.56
2023-03-22T03:18:26.744Z,11.13
2023-03-22T03:23:49.869Z,10.74
2023-03-22T03:28:58.396Z,10.38
2023-03-22T03:34:23.556Z,11.06
2023-03-22T03:39:30.750Z,13.89
2023-03-22T03:44:36.804Z,14.64
2023-03-22T03:49:41.018Z,13.14
2023-03-22T03:54:45.878Z,12.19
2023-03-22T03:59:52.237Z,11.57
2023-03-22T04:05:07.687Z,11.10
2023-03-22T04:10:11.016Z,10.71
2023-03-22T04:15:14.354Z,11.34
2023-03-22T04:20:19.862Z,13.98
2023-03-22T04:25:23.601Z,14.74
2023-03-22T04:30:45.921Z,13.21
2023-03-22T04:36:11.475Z,12.21
2023-03-22T04:41:26.542Z,11.57
2023-03-22T04:46:34.973Z,11.09
2023-03-22T04:51:40.008Z,10.70
2023-03-22T04:56:58.609Z,11.49
2023-03-22T05:02:04.186Z,14.20
2023-03-22T05:07:14.234Z,14.84
2023-03-22T05:12:27.877Z,13.22
2023-03-22T05:17:38.642Z,12.25
2023-03-22T05:22:42.124Z,11.57
2023-03-22T05:27:47.078Z,11.06
2023-03-22T05:33:11.090Z,10.62
2023-03-22T05:38:19.381Z,10.27
2023-03-22T05:43:26.775Z,11.09
2023-03-22T05:48:30.783Z,13.85
2023-03-22T05:53:35.072Z,14.74
2023-03-22T05:59:02.971Z,13.26
2023-03-22T06:04:07.018Z,12.46
2023-03-22T06:09:20.449Z,11.90
2023-03-22T06:14:26.637Z,11.50
2023-03-22T06:19:54.613Z,11.16
2023-03-22T06:24:58.058Z,11.91
2023-03-22T06:30:09.222Z,14.82
2023-03-22T06:35:23.602Z,15.61
2023-03-22T06:40:28.313Z,14.04
2023-03-22T06:45:33.698Z,13.19
2023-03-22T06:50:40.368Z,12.59
2023-03-22T06:55:55.649Z,12.11
2023-03-22T07:01:00.887Z,12.58
2023-03-22T07:06:07.193Z,15.27
2023-03-22T07:11:12.585Z,15.79
2023-03-22T07:16:19.856Z,14.29
2023-03-22T07:21:36.375Z,13.42
2023-03-22T07:26:42.424Z,12.87
2023-03-22T07:31:46.905Z,12.48
2023-03-22T07:37:00.179Z,12.18
2023-03-22T07:42:04.384Z,11.96
2023-03-22T07:47:39.881Z,13.02
2023-03-22T07:53:12.033Z,16.22
2023-03-22T07:58:15.389Z,16.04
2023-03-22T08:03:19.388Z,14.84
2023-03-22T08:08:37.229Z,14.23
2023-03-22T08:13:41.343Z,13.85
2023-03-22T08:18:46.055Z,13.54
2023-03-22T08:23:50.017Z,13.27
2023-03-22T08:29:31.607Z,13.07
2023-03-22T08:34:40.157Z,12.99
2023-03-22T08:39:44.225Z,13.02
2023-03-22T08:45:01.905Z,13.08
2023-03-22T08:50:07.258Z,13.15
2023-03-22T08:55:17.880Z,13.25
2023-03-22T09:00:48.660Z,13.32
2023-03-22T09:06:02.314Z,13.35
2023-03-22T09:11:12.580Z,13.42
2023-03-22T09:16:17.155Z,13.54
2023-03-22T09:21:22.234Z,13.68
2023-03-22T09:26:37.302Z,13.78
2023-03-22T09:31:42.184Z,13.84
2023-03-22T09:36:53.066Z,13.89
2023-03-22T09:42:03.513Z,13.89
2023-03-22T09:47:14.009Z,13.86
2023-03-22T09:52:18.246Z,13.85
2023-03-22T09:57:37.745Z,13.95
2023-03-22T10:03:05.697Z,14.13
2023-03-22T10:08:22.526Z,14.32
2023-03-22T10:14:00.465Z,14.52
2023-03-22T10:19:45.255Z,14.68
2023-03-22T10:24:51.406Z,14.86
2023-03-22T10:30:10.721Z,15.00
2023-03-22T10:35:15.741Z,15.10
2023-03-22T10:40:25.092Z,15.20
2023-03-22T10:45:28.855Z,15.30
2023-03-22T10:50:36.877Z,15.42
2023-03-22T10:55:42.032Z,15.52
2023-03-22T11:00:48.676Z,15.62
2023-03-22T11:06:19.704Z,15.75
2023-03-22T11:11:25.064Z,15.92
2023-03-22T11:16:31.230Z,16.11
2023-03-22T11:21:35.253Z,16.32
2023-03-22T11:26:41.334Z,16.49
2023-03-22T11:31:55.632Z,16.66
2023-03-22T11:37:02.418Z,16.90
2023-03-22T11:42:06.937Z,17.04
2023-03-22T11:47:14.152Z,17.16
2023-03-22T11:52:27.928Z,17.23
2023-03-22T11:57:34.923Z,17.30
2023-03-22T12:02:48.872Z,17.41
2023-03-22T12:08:02.567Z,17.50
2023-03-22T12:13:15.959Z,17.62
2023-03-22T12:18:28.306Z,17.79
2023-03-22T12:23:35.517Z,17.96
2023-03-22T12:28:49.824Z,18.11
2023-03-22T12:33:56.672Z,18.30
2023-03-22T12:39:02.732Z,18.47
2023-03-22T12:44:18.816Z,18.70
2023-03-22T12:49:32.634Z,18.83
2023-03-22T12:54:38.040Z,18.99
2023-03-22T12:59:45.584Z,19.27
2023-03-22T13:05:05.343Z,19.55
2023-03-22T13:10:31.381Z,19.65
2023-03-22T13:15:42.308Z,19.60
2023-03-22T13:21:11.795Z,19.59
2023-03-22T13:26:16.482Z,19.59
2023-03-22T13:31:37.994Z,19.71
2023-03-22T13:36:50.395Z,20.09
2023-03-22T13:42:09.017Z,20.49
2023-03-22T13:47:46.708Z,20.73
2023-03-22T13:53:22.497Z,21.06
2023-03-22T13:58:36.681Z,21.19
2023-03-22T14:03:43.061Z,21.15
2023-03-22T14:08:50.065Z,20.98
2023-03-22T14:14:16.096Z,20.71
2023-03-22T14:19:23.743Z,20.30
